Time;durP1;ratioP1;P1;durP2;ratioP2;P2;SDS_P1;SDS_P2;PMS_P1;PMS_P2;Temp;Humidity;BMP_temperature;BMP_pressure;BME280_temperature;BME280_humidity;BME280_pressure;Samples;Min_cycle;Max_cycle;Signal;HPM_P1;HPM_P2
2022/02/16 00:00:20;;;;;;;4.28;1.98;;;;;;;4.31;75.01;97855.81;4169131;28;20260;-72
2022/02/16 00:02:21;;;;;;;3.38;2.00;;;;;;;4.35;74.75;97845.72;4168673;28;20236;-72
2022/02/16 00:04:21;;;;;;;3.72;1.70;;;;;;;4.34;75.57;97826.91;4167990;28;20040;-72
2022/02/16 00:06:21;;;;;;;2.75;1.67;;;;;;;4.42;74.64;97828.69;4166813;28;20084;-72
2022/02/16 00:08:24;;;;;;;4.13;1.90;;;;;;;4.47;74.38;97839.38;4167810;28;20487;-72
2022/02/16 00:10:24;;;;;;;2.78;1.98;;;;;;;4.47;74.89;97828.41;4168075;28;20770;-72
2022/02/16 00:12:24;;;;;;;3.75;1.90;;;;;;;4.46;74.71;97827.59;4168795;28;20150;-72
2022/02/16 00:14:25;;;;;;;5.25;1.80;;;;;;;4.36;74.67;97822.66;4166992;28;20127;-72
2022/02/16 00:16:25;;;;;;;3.42;1.83;;;;;;;4.43;74.75;97825.56;4168335;28;20696;-72
2022/02/16 00:18:25;;;;;;;3.88;2.00;;;;;;;4.52;74.36;97825.41;4166976;28;20037;-72
2022/02/16 00:20:26;;;;;;;3.05;1.90;;;;;;;4.48;74.78;97824.53;4168984;28;20041;-72
2022/02/16 00:22:26;;;;;;;2.60;1.90;;;;;;;4.50;74.92;97825.75;4167817;28;20049;-71
2022/02/16 00:24:26;;;;;;;3.85;2.00;;;;;;;4.50;74.50;97812.06;4168397;28;20057;-72
2022/02/16 00:26:27;;;;;;;3.35;2.20;;;;;;;4.49;74.79;97826.13;4167989;28;20067;-72
2022/02/16 00:28:27;;;;;;;3.78;1.83;;;;;;;4.50;74.86;97836.72;4167972;28;20049;-72
2022/02/16 00:30:28;;;;;;;3.55;2.00;;;;;;;4.54;74.43;97814.09;4167480;28;20398;-71
2022/02/16 00:32:28;;;;;;;3.90;1.83;;;;;;;4.48;74.83;97827.28;4168741;28;20694;-72
2022/02/16 00:34:28;;;;;;;3.80;2.10;;;;;;;4.39;75.53;97819.22;4168329;28;20416;-72
2022/02/16 00:36:29;;;;;;;4.07;1.98;;;;;;;4.47;75.31;97820.19;4168254;28;20090;-72
2022/02/16 00:38:29;;;;;;;4.00;2.22;;;;;;;4.40;75.40;97815.34;4167961;28;20114;-72
2022/02/16 00:40:30;;;;;;;4.40;2.30;;;;;;;4.35;75.87;97818.31;4168700;28;20550;-72
2022/02/16 00:42:30;;;;;;;5.03;2.58;;;;;;;4.35;76.10;97815.59;4168533;28;20461;-72
2022/02/16 00:44:30;;;;;;;4.15;2.45;;;;;;;4.35;75.94;97818.31;4168292;28;20548;-72
2022/02/16 00:46:31;;;;;;;5.40;2.33;;;;;;;4.29;76.47;97803.31;4168935;28;20048;-72
2022/02/16 00:48:31;;;;;;;3.00;2.20;;;;;;;4.28;77.22;97804.44;4168950;28;20138;-72
2022/02/16 00:50:32;;;;;;;3.03;2.20;;;;;;;4.25;77.86;97807.13;4169532;28;20111;-72
2022/02/16 00:52:32;;;;;;;3.13;2.17;;;;;;;4.25;78.04;97794.22;4169697;28;20429;-72
2022/02/16 00:54:34;;;;;;;4.20;2.58;;;;;;;4.20;77.98;97802.69;4169626;28;20045;-72
2022/02/16 00:56:34;;;;;;;2.67;2.30;;;;;;;4.20;78.90;97794.47;4168787;28;20212;-72
2022/02/16 00:58:35;;;;;;;3.85;2.10;;;;;;;4.14;79.06;97787.69;4169231;28;20088;-72
2022/02/16 01:00:35;;;;;;;3.08;2.25;;;;;;;4.17;79.17;97795.19;4168937;28;20037;-72
2022/02/16 01:02:36;;;;;;;7.38;2.10;;;;;;;4.22;79.59;97789.47;4168656;28;20616;-72
2022/02/16 01:04:36;;;;;;;3.70;2.10;;;;;;;4.15;79.57;97792.81;4168893;28;20382;-72
2022/02/16 01:06:36;;;;;;;3.05;2.00;;;;;;;4.16;80.02;97791.66;4168321;28;20045;-72
2022/02/16 01:08:37;;;;;;;3.40;2.15;;;;;;;4.15;80.90;97792.81;4168469;28;20033;-72
2022/02/16 01:10:38;;;;;;;3.88;2.17;;;;;;;4.13;80.65;97791.53;4169221;28;20045;-72
2022/02/16 01:12:39;;;;;;;3.25;2.47;;;;;;;4.10;81.35;97795.00;4169413;28;20041;-72
2022/02/16 01:14:40;;;;;;;2.13;1.88;;;;;;;4.20;81.21;97783.50;4168083;28;20459;-72
2022/02/16 01:16:40;;;;;;;3.38;1.90;;;;;;;4.13;80.94;97777.84;4168841;28;20519;-72
2022/02/16 01:18:41;;;;;;;2.67;2.08;;;;;;;4.06;81.64;97773.03;4171882;28;20053;-72
2022/02/16 01:20:42;;;;;;;3.95;2.30;;;;;;;4.06;82.03;97786.72;4171087;28;20053;-71
2022/02/16 01:22:43;;;;;;;3.08;2.10;;;;;;;4.06;82.30;97773.03;4172095;28;20080;-72
2022/02/16 01:24:43;;;;;;;4.40;2.05;;;;;;;3.98;82.28;97771.25;4171966;28;20072;-72
2022/02/16 01:26:43;;;;;;;3.08;1.83;;;;;;;3.97;82.51;97766.88;4171847;28;20048;-72
2022/02/16 01:28:44;;;;;;;2.70;2.00;;;;;;;3.94;83.05;97768.41;4172203;28;20080;-71
2022/02/16 01:30:44;;;;;;;2.30;2.10;;;;;;;3.95;83.04;97763.72;4171678;28;20106;-72
2022/02/16 01:32:45;;;;;;;2.25;1.90;;;;;;;3.93;82.65;97757.81;4172039;28;20132;-72
2022/02/16 01:34:46;;;;;;;2.15;1.85;;;;;;;4.02;82.31;97755.69;4171063;28;20106;-72
2022/02/16 01:36:46;;;;;;;2.25;1.80;;;;;;;3.94;83.09;97760.19;4171235;28;20049;-72
2022/02/16 01:38:46;;;;;;;3.80;1.90;;;;;;;3.92;82.77;97757.00;4171180;28;20118;-72
2022/02/16 01:40:47;;;;;;;1.88;1.63;;;;;;;3.92;83.36;97742.53;4172200;28;20610;-72
2022/02/16 01:42:47;;;;;;;1.73;1.50;;;;;;;3.89;83.42;97752.25;4171540;28;20076;-72
2022/02/16 01:44:48;;;;;;;2.03;1.60;;;;;;;3.92;83.07;97748.00;4170621;28;20053;-72
2022/02/16 01:47:00;;;;;;;2.25;1.88;;;;;;;3.85;83.95;97742.34;4170437;28;20248;-72
2022/02/16 01:49:00;;;;;;;2.53;1.77;;;;;;;3.89;83.39;97741.31;4171704;28;20408;-72
2022/02/16 01:51:00;;;;;;;2.40;1.65;;;;;;;3.89;83.77;97730.34;4171903;28;20528;-72
2022/02/16 01:53:00;;;;;;;2.58;1.63;;;;;;;3.91;83.43;97722.59;4171473;28;20048;-72
2022/02/16 01:55:02;;;;;;;2.83;1.73;;;;;;;3.94;83.43;97726.56;4171845;28;20148;-71
2022/02/16 01:57:05;;;;;;;2.60;1.50;;;;;;;3.85;83.84;97720.47;4171526;28;20049;-72
2022/02/16 01:59:05;;;;;;;2.15;1.67;;;;;;;3.86;83.84;97714.63;4171426;28;20048;-72
2022/02/16 02:01:06;;;;;;;2.58;1.52;;;;;;;3.90;83.42;97718.25;4171466;28;20663;-72
2022/02/16 02:03:07;;;;;;;3.17;1.45;;;;;;;3.86;83.35;97711.88;4171495;28;20473;-71
2022/02/16 02:05:08;;;;;;;3.00;1.73;;;;;;;3.94;83.53;97723.81;4171613;28;20304;-72
2022/02/16 02:07:08;;;;;;;2.50;1.58;;;;;;;3.97;82.80;97712.16;4170714;28;20072;-72
2022/02/16 02:09:10;;;;;;;1.90;1.70;;;;;;;4.00;82.54;97714.19;4171228;28;20041;-72
2022/02/16 02:11:10;;;;;;;1.75;1.50;;;;;;;3.99;82.74;97718.09;4171070;28;20511;-72
2022/02/16 02:13:11;;;;;;;2.25;1.70;;;;;;;3.93;83.21;97705.81;4171747;28;20037;-72
2022/02/16 02:15:11;;;;;;;1.90;1.40;;;;;;;3.88;83.44;97684.97;4170788;28;20052;-72
2022/02/16 02:17:12;;;;;;;1.55;1.45;;;;;;;3.90;83.10;97696.38;4170536;28;20099;-72
2022/02/16 02:19:12;;;;;;;1.55;1.27;;;;;;;3.85;83.90;97690.34;4171828;28;20048;-72
2022/02/16 02:21:12;;;;;;;3.03;1.60;;;;;;;3.81;83.88;97692.22;4170829;28;20453;-72
2022/02/16 02:23:13;;;;;;;2.40;1.58;;;;;;;3.82;83.41;97682.88;4171057;28;20136;-72
2022/02/16 02:25:14;;;;;;;2.17;1.80;;;;;;;3.75;84.11;97688.94;4171084;28;20771;-72
2022/02/16 02:27:15;;;;;;;3.40;1.52;;;;;;;3.83;83.67;97677.03;4170342;28;20045;-72
2022/02/16 02:29:15;;;;;;;1.73;1.48;;;;;;;3.77;84.26;97672.16;4168281;28;20048;-72
2022/02/16 02:31:15;;;;;;;2.20;1.40;;;;;;;3.70;85.06;97669.25;4170863;28;20056;-72
2022/02/16 02:33:16;;;;;;;1.30;1.20;;;;;;;3.67;84.91;97649.66;4171400;28;20045;-72
2022/02/16 02:35:17;;;;;;;2.80;1.50;;;;;;;3.67;84.72;97649.66;4170809;28;20417;-72
2022/02/16 02:37:17;;;;;;;1.48;1.27;;;;;;;3.68;84.77;97655.94;4170494;28;20056;-72
2022/02/16 02:39:17;;;;;;;1.58;1.38;;;;;;;3.69;84.89;97657.50;4171143;28;20356;-72
2022/02/16 02:41:17;;;;;;;1.80;1.40;;;;;;;3.71;84.81;97643.47;4171017;28;20436;-72
2022/02/16 02:43:20;;;;;;;1.55;1.25;;;;;;;3.70;85.40;97634.47;4170542;28;20037;-72
2022/02/16 02:45:20;;;;;;;1.92;1.30;;;;;;;3.73;84.81;97639.25;4170446;28;20513;-72
2022/02/16 02:47:20;;;;;;;1.60;1.30;;;;;;;3.73;85.11;97644.72;4170443;28;20041;-72
2022/02/16 02:49:21;;;;;;;2.70;1.20;;;;;;;3.77;84.78;97633.88;4170711;28;20048;-72
2022/02/16 02:51:21;;;;;;;1.67;1.25;;;;;;;3.79;84.54;97642.50;4170574;28;20209;-72
2022/02/16 02:53:22;;;;;;;1.77;1.50;;;;;;;3.77;84.70;97633.88;4171114;28;20109;-72
2022/02/16 02:55:22;;;;;;;1.50;1.10;;;;;;;3.76;84.86;97627.59;4170478;28;20053;-72
2022/02/16 02:57:23;;;;;;;1.67;1.20;;;;;;;3.74;85.15;97629.91;4169627;28;20387;-72
2022/02/16 02:59:23;;;;;;;1.42;1.20;;;;;;;3.77;84.78;97634.66;4170800;28;20048;-72
2022/02/16 03:01:23;;;;;;;1.45;1.35;;;;;;;3.78;84.74;97638.19;4170881;28;20033;-72
2022/02/16 03:03:24;;;;;;;1.42;1.30;;;;;;;3.75;85.06;97619.75;4170531;28;20295;-72
2022/02/16 03:05:24;;;;;;;1.33;1.23;;;;;;;3.84;84.71;97621.16;4170459;28;20520;-72
2022/02/16 03:07:24;;;;;;;1.30;1.20;;;;;;;3.77;84.92;97606.50;4169735;28;20536;-71
2022/02/16 03:09:25;;;;;;;2.53;1.35;;;;;;;3.78;85.12;97608.09;4170467;28;20048;-72
2022/02/16 03:11:25;;;;;;;1.77;1.20;;;;;;;3.77;84.87;97611.97;4170441;28;20043;-72
2022/02/16 03:13:26;;;;;;;1.75;1.55;;;;;;;3.78;85.13;97603.41;4170274;28;20515;-72
2022/02/16 03:15:26;;;;;;;2.35;1.38;;;;;;;3.75;84.97;97601.38;4170249;28;20057;-72
2022/02/16 03:17:28;;;;;;;1.55;1.27;;;;;;;3.73;85.93;97600.16;4169446;28;20041;-72
2022/02/16 03:19:29;;;;;;;1.45;1.30;;;;;;;3.77;85.50;97601.03;4170470;28;20619;-72
2022/02/16 03:21:29;;;;;;;4.45;1.55;;;;;;;3.80;85.40;97601.09;4170380;28;20135;-72
2022/02/16 03:23:29;;;;;;;1.92;1.30;;;;;;;3.76;85.37;97586.56;4170334;28;20041;-72
2022/02/16 03:25:29;;;;;;;1.25;1.10;;;;;;;3.82;85.38;97589.81;4170314;28;20049;-72
2022/02/16 03:27:30;;;;;;;1.58;1.25;;;;;;;3.83;84.92;97589.47;4169348;28;20047;-71
2022/02/16 03:29:30;;;;;;;1.45;1.20;;;;;;;3.81;85.39;97582.78;4170231;28;20457;-72
2022/02/16 03:31:31;;;;;;;1.30;1.20;;;;;;;3.87;85.00;97581.31;4170083;28;20066;-72
2022/02/16 03:33:31;;;;;;;1.52;1.30;;;;;;;3.85;85.05;97578.94;4170524;28;20055;-72
2022/02/16 03:35:31;;;;;;;1.30;1.20;;;;;;;3.90;84.93;97578.69;4169706;28;20448;-72
2022/02/16 03:37:32;;;;;;;1.70;1.33;;;;;;;3.87;85.10;97581.31;4169341;28;20455;-72
2022/02/16 03:39:32;;;;;;;1.98;1.25;;;;;;;3.82;85.16;97565.19;4170409;28;20053;-72
2022/02/16 03:41:32;;;;;;;1.35;1.10;;;;;;;3.81;85.31;97569.88;4169526;28;20037;-72
2022/02/16 03:43:33;;;;;;;1.70;1.30;;;;;;;3.81;85.33;97569.88;4169999;28;20049;-72
2022/02/16 03:45:33;;;;;;;1.30;1.20;;;;;;;3.79;85.83;97572.16;4169788;28;20098;-72
2022/02/16 03:47:34;;;;;;;1.98;1.30;;;;;;;3.79;85.85;97561.22;4169294;28;20132;-72
2022/02/16 03:49:34;;;;;;;2.30;1.30;;;;;;;3.74;86.73;97563.44;4168597;28;20056;-72
2022/02/16 03:51:34;;;;;;;1.60;1.40;;;;;;;3.77;86.38;97555.31;4169745;28;20045;-72
2022/02/16 03:53:35;;;;;;;1.33;1.23;;;;;;;3.75;86.29;97548.63;4170363;28;20441;-72
2022/02/16 03:55:35;;;;;;;1.45;1.23;;;;;;;3.79;86.06;97544.00;4169473;28;20083;-72
2022/02/16 03:57:36;;;;;;;1.20;1.10;;;;;;;3.88;85.83;97548.13;4168884;28;20037;-72
2022/02/16 03:59:36;;;;;;;1.00;0.90;;;;;;;3.90;85.36;97540.38;4170014;28;20045;-72
2022/02/16 04:01:37;;;;;;;1.40;1.30;;;;;;;3.86;86.22;97541.44;4169339;28;20517;-72
2022/02/16 04:03:37;;;;;;;1.25;1.10;;;;;;;3.82;85.74;97540.56;4169819;28;20045;-72
2022/02/16 04:05:40;;;;;;;1.27;0.90;;;;;;;3.83;86.11;97540.22;4169578;28;20412;-72
2022/02/16 04:07:40;;;;;;;1.20;1.10;;;;;;;3.79;86.10;97533.84;4169408;28;20049;-72
2022/02/16 04:09:41;;;;;;;1.42;1.08;;;;;;;3.81;86.15;97525.31;4169318;28;20049;-72
2022/02/16 04:11:41;;;;;;;1.35;1.15;;;;;;;3.80;85.74;97529.97;4169348;28;20094;-72
2022/02/16 04:13:42;;;;;;;1.58;1.10;;;;;;;3.80;86.47;97521.75;4169899;28;20041;-72
2022/02/16 04:15:42;;;;;;;1.05;0.95;;;;;;;3.77;86.38;97514.28;4169497;28;20556;-72
2022/02/16 04:17:43;;;;;;;1.33;0.95;;;;;;;3.82;86.81;97526.91;4168831;28;20041;-72
2022/02/16 04:19:43;;;;;;;1.90;1.00;;;;;;;3.79;86.13;97522.91;4169873;28;20524;-72
2022/02/16 04:21:44;;;;;;;1.58;1.10;;;;;;;3.84;85.84;97521.84;4169691;28;20549;-72
2022/02/16 04:23:45;;;;;;;1.15;0.90;;;;;;;3.82;85.99;97516.75;4169644;28;20037;-72
2022/02/16 04:25:45;;;;;;;3.45;1.17;;;;;;;3.81;86.02;97528.84;4169038;28;20074;-71
2022/02/16 04:27:46;;;;;;;1.05;0.90;;;;;;;3.77;86.62;97508.00;4168861;28;20115;-72
2022/02/16 04:29:46;;;;;;;0.90;0.80;;;;;;;3.84;86.35;97522.63;4169490;28;20041;-72
2022/02/16 04:31:47;;;;;;;0.70;0.70;;;;;;;3.81;86.21;97531.56;4169374;28;20123;-72
2022/02/16 04:33:48;;;;;;;1.40;0.90;;;;;;;3.79;86.27;97511.16;4169750;28;20416;-71
2022/02/16 04:35:48;;;;;;;1.30;1.00;;;;;;;3.79;86.44;97514.69;4168009;28;20045;-71
2022/02/16 04:37:49;;;;;;;0.82;0.82;;;;;;;3.81;86.30;97493.28;4168495;28;20094;-72
2022/02/16 04:39:49;;;;;;;1.08;1.00;;;;;;;3.87;85.85;97510.19;4169281;28;20374;-71
2022/02/16 04:41:49;;;;;;;1.00;0.90;;;;;;;3.86;86.39;97497.66;4169668;28;20106;-72
2022/02/16 04:43:50;;;;;;;1.40;0.80;;;;;;;3.84;86.42;97498.00;4169355;28;20493;-72
2022/02/16 04:45:51;;;;;;;0.90;0.90;;;;;;;3.85;86.63;97496.06;4169120;28;20036;-72
2022/02/16 04:47:51;;;;;;;0.80;0.80;;;;;;;3.83;86.63;97487.44;4169030;28;20051;-72
2022/02/16 04:49:51;;;;;;;1.73;0.90;;;;;;;3.85;86.95;97504.28;4169428;28;20079;-71
2022/02/16 04:51:52;;;;;;;0.90;0.90;;;;;;;3.85;86.79;97493.34;4170626;28;20140;-71
2022/02/16 04:53:52;;;;;;;0.73;0.70;;;;;;;3.86;86.50;97492.97;4172685;28;20329;-71
2022/02/16 04:55:52;;;;;;;1.00;0.85;;;;;;;3.85;86.68;97494.13;4172634;28;20150;-72
2022/02/16 04:57:54;;;;;;;1.80;0.80;;;;;;;3.84;86.85;97495.28;4171662;28;20790;-71
2022/02/16 04:59:58;;;;;;;0.77;0.75;;;;;;;3.86;86.32;97494.91;4172799;28;20053;-71
2022/02/16 05:01:58;;;;;;;1.30;0.95;;;;;;;3.81;87.71;97487.78;4170449;28;20323;-71
2022/02/16 05:03:59;;;;;;;1.20;0.82;;;;;;;3.89;87.08;97483.28;4171098;28;20474;-71
2022/02/16 05:05:59;;;;;;;1.13;0.90;;;;;;;3.85;87.50;97480.44;4171654;28;20846;-71
2022/02/16 05:07:59;;;;;;;1.00;0.90;;;;;;;3.84;87.63;97472.59;4171685;28;20555;-71
2022/02/16 05:10:00;;;;;;;1.00;0.73;;;;;;;3.81;88.08;97474.13;4172406;28;20045;-71
2022/02/16 05:12:00;;;;;;;2.47;0.90;;;;;;;3.87;87.16;97449.97;4169213;28;20079;-71
2022/02/16 05:14:01;;;;;;;0.90;0.88;;;;;;;3.88;87.45;97468.78;4171136;28;20053;-72
2022/02/16 05:16:01;;;;;;;1.20;0.90;;;;;;;3.79;87.61;97462.72;4171422;28;20033;-72
2022/02/16 05:18:02;;;;;;;1.13;1.02;;;;;;;3.83;88.21;97460.88;4171531;28;20053;-71
2022/02/16 05:20:03;;;;;;;0.85;0.85;;;;;;;3.78;88.93;97472.06;4170696;28;20072;-71
2022/02/16 05:22:04;;;;;;;0.90;0.90;;;;;;;3.79;88.08;97453.72;4170749;28;20037;-71
2022/02/16 05:24:07;;;;;;;1.33;0.88;;;;;;;3.81;88.05;97459.66;4170883;28;20094;-72
2022/02/16 05:26:08;;;;;;;1.10;1.00;;;;;;;3.78;88.61;97457.59;4170841;28;20048;-71
2022/02/16 05:28:09;;;;;;;1.70;0.98;;;;;;;3.77;89.44;97464.22;4170448;28;20021;-71
2022/02/16 05:30:10;;;;;;;1.30;1.02;;;;;;;3.74;88.00;97468.47;4171208;28;20021;-72
2022/02/16 05:32:10;;;;;;;2.05;1.13;;;;;;;3.74;88.04;97456.75;4170759;28;20113;-72
2022/02/16 05:34:11;;;;;;;3.50;2.25;;;;;;;3.80;87.99;97449.81;4171086;28;20025;-71
2022/02/16 05:36:11;;;;;;;1.27;1.05;;;;;;;3.85;86.89;97458.56;4171410;28;20037;-71
2022/02/16 05:38:12;;;;;;;1.13;0.90;;;;;;;3.88;86.89;97451.56;4170068;28;20037;-71
2022/02/16 05:40:12;;;;;;;6.28;2.95;;;;;;;3.81;87.08;97459.66;4171051;28;20041;-71
2022/02/16 05:42:12;;;;;;;2.42;1.30;;;;;;;3.78;87.86;97449.41;4170867;28;20060;-71
2022/02/16 05:44:13;;;;;;;13.43;6.20;;;;;;;3.77;87.21;97447.81;4171029;28;20033;-71
2022/02/16 05:46:14;;;;;;;5.60;2.55;;;;;;;3.77;87.55;97434.94;4170507;28;20029;-71
2022/02/16 05:48:20;;;;;;;5.80;3.05;;;;;;;3.76;87.93;97425.13;4169871;28;20039;-71
2022/02/16 05:50:20;;;;;;;1.27;0.70;;;;;;;3.70;88.33;97425.78;4169009;28;20028;-71
2022/02/16 05:52:20;;;;;;;2.15;1.40;;;;;;;3.76;88.35;97421.63;4165911;28;20056;-72
2022/02/16 05:54:21;;;;;;;3.38;1.90;;;;;;;3.77;87.25;97418.50;4165521;28;20582;-71
2022/02/16 05:56:21;;;;;;;3.65;1.40;;;;;;;3.81;87.36;97413.13;4098063;28;20489;-71
2022/02/16 05:58:21;;;;;;;1.67;1.27;;;;;;;3.80;87.56;97400.56;4164514;28;20089;-71
2022/02/16 06:00:22;;;;;;;2.00;1.67;;;;;;;3.83;87.24;97406.13;4169677;28;20055;-71
2022/02/16 06:02:22;;;;;;;1.10;1.00;;;;;;;3.84;87.09;97415.94;4169200;28;20098;-71
2022/02/16 06:04:22;;;;;;;0.70;0.70;;;;;;;3.80;88.04;97408.78;4169724;28;20049;-71
2022/02/16 06:06:23;;;;;;;1.38;1.27;;;;;;;3.81;87.85;97407.66;4170327;28;20045;-71
2022/02/16 06:08:23;;;;;;;0.90;0.90;;;;;;;3.76;87.97;97400.50;4170237;28;20040;-71
2022/02/16 06:10:23;;;;;;;1.00;0.90;;;;;;;3.78;87.71;97394.69;4166809;28;20045;-71
2022/02/16 06:12:24;;;;;;;0.90;0.90;;;;;;;3.77;87.48;97396.63;4168601;28;20055;-71
2022/02/16 06:14:24;;;;;;;1.42;1.05;;;;;;;3.80;88.03;97390.41;4168800;28;20638;-72
2022/02/16 06:16:25;;;;;;;0.90;0.90;;;;;;;3.82;87.22;97385.41;4169785;28;20550;-71
2022/02/16 06:18:25;;;;;;;1.58;0.80;;;;;;;3.78;88.27;97390.00;4169406;28;20048;-71
2022/02/16 06:20:26;;;;;;;0.88;0.88;;;;;;;3.77;87.92;97382.16;4171070;28;20041;-71
2022/02/16 06:22:26;;;;;;;1.30;1.05;;;;;;;3.75;88.37;97389.94;4169901;28;20120;-71
2022/02/16 06:24:27;;;;;;;1.10;0.88;;;;;;;3.79;88.14;97375.16;4171239;28;20037;-71
2022/02/16 06:26:27;;;;;;;1.00;0.90;;;;;;;3.83;88.21;97386.97;4171017;28;20048;-71
2022/02/16 06:28:27;;;;;;;0.82;0.82;;;;;;;3.81;87.86;97378.34;4170541;28;20049;-71
2022/02/16 06:30:28;;;;;;;0.70;0.70;;;;;;;3.82;87.77;97379.94;4170213;28;20061;-71
2022/02/16 06:32:28;;;;;;;1.10;1.00;;;;;;;3.86;87.98;97380.78;4171376;28;20138;-72
2022/02/16 06:34:29;;;;;;;0.82;0.80;;;;;;;3.82;88.20;97371.72;4171122;28;20049;-71
2022/02/16 06:36:29;;;;;;;0.70;0.70;;;;;;;3.78;87.97;97365.38;4170026;28;20063;-71
2022/02/16 06:38:30;;;;;;;1.15;0.90;;;;;;;3.80;88.34;97365.00;4170540;28;20048;-72
2022/02/16 06:40:30;;;;;;;0.70;0.70;;;;;;;3.80;88.29;97365.78;4170524;28;20045;-71
2022/02/16 06:42:31;;;;;;;0.73;0.70;;;;;;;3.80;88.43;97365.78;4171015;28;20045;-71
2022/02/16 06:44:31;;;;;;;0.80;0.80;;;;;;;3.83;88.46;97358.84;4170977;28;20440;-71
2022/02/16 06:46:31;;;;;;;1.65;0.75;;;;;;;3.81;88.57;97353.72;4170214;28;20494;-71
2022/02/16 06:48:32;;;;;;;0.77;0.77;;;;;;;3.89;87.79;97346.44;4170812;28;20525;-72
2022/02/16 06:50:32;;;;;;;0.60;0.60;;;;;;;3.88;88.00;97334.69;4170253;28;20049;-72
2022/02/16 06:52:32;;;;;;;0.75;0.70;;;;;;;3.94;88.25;97325.03;4171188;28;20101;-71
2022/02/16 06:54:33;;;;;;;1.33;1.00;;;;;;;3.97;87.84;97336.41;4170651;28;20045;-71
2022/02/16 06:56:33;;;;;;;0.70;0.70;;;;;;;3.97;88.38;97333.66;4169937;28;20203;-71
2022/02/16 06:58:33;;;;;;;2.78;1.35;;;;;;;3.98;87.77;97338.81;4170572;28;20052;-71
2022/02/16 07:00:34;;;;;;;0.60;0.60;;;;;;;4.08;87.87;97335.47;4170525;28;20045;-71
2022/02/16 07:02:44;;;;;;;0.68;0.68;;;;;;;4.17;86.75;97316.84;4170545;28;20083;-71
2022/02/16 07:04:45;;;;;;;0.80;0.70;;;;;;;4.18;86.57;97326.66;4169516;28;20493;-71
2022/02/16 07:06:45;;;;;;;0.63;0.63;;;;;;;4.20;86.31;97307.13;4169480;28;20081;-71
2022/02/16 07:08:47;;;;;;;1.00;0.90;;;;;;;4.15;87.04;97304.69;4170560;28;20049;-71
2022/02/16 07:10:47;;;;;;;0.63;0.63;;;;;;;4.19;86.86;97298.13;4170049;28;20524;-71
2022/02/16 07:12:48;;;;;;;1.05;0.70;;;;;;;4.18;87.31;97303.97;4170455;28;20045;-71
2022/02/16 07:14:52;;;;;;;1.08;0.60;;;;;;;4.14;87.91;97311.34;4170109;28;20136;-72
2022/02/16 07:16:53;;;;;;;0.70;0.70;;;;;;;4.16;87.21;97309.81;4169727;28;20060;-72
2022/02/16 07:18:53;;;;;;;0.70;0.70;;;;;;;4.12;86.77;97310.88;4169759;28;20052;-71
2022/02/16 07:20:54;;;;;;;0.82;0.70;;;;;;;4.12;87.18;97308.94;4170015;28;20060;-72
2022/02/16 07:22:55;;;;;;;0.80;0.68;;;;;;;4.20;87.69;97307.13;4170342;28;20051;-72
2022/02/16 07:24:55;;;;;;;0.60;0.60;;;;;;;4.26;87.30;97313.09;4169997;28;20366;-71
2022/02/16 07:26:59;;;;;;;0.60;0.60;;;;;;;4.31;87.15;97307.31;4169324;28;20563;-72
2022/02/16 07:28:59;;;;;;;0.80;0.80;;;;;;;4.33;87.13;97305.78;4170040;28;20067;-71
2022/02/16 07:30:59;;;;;;;1.27;0.70;;;;;;;4.30;87.93;97302.97;4170266;28;20135;-71
2022/02/16 07:33:00;;;;;;;0.63;0.63;;;;;;;4.36;87.06;97299.56;4169787;28;20104;-71
2022/02/16 07:35:00;;;;;;;0.88;0.80;;;;;;;4.44;86.02;97297.75;4169903;28;20048;-72
2022/02/16 07:37:03;;;;;;;0.60;0.60;;;;;;;4.47;86.86;97281.38;4169272;28;20216;-71
2022/02/16 07:39:03;;;;;;;0.70;0.70;;;;;;;4.49;86.79;97275.53;4170264;28;20520;-72
2022/02/16 07:41:04;;;;;;;0.70;0.70;;;;;;;4.50;86.31;97275.16;4169714;28;20044;-72
2022/02/16 07:43:04;;;;;;;0.80;0.70;;;;;;;4.49;87.47;97283.75;4170090;28;20149;-72
2022/02/16 07:45:06;;;;;;;2.20;0.70;;;;;;;4.54;87.54;97285.38;4170029;28;20053;-72
2022/02/16 07:47:09;;;;;;;0.60;0.60;;;;;;;4.51;86.71;97271.25;4169148;28;20491;-71
2022/02/16 07:49:10;;;;;;;0.70;0.70;;;;;;;4.56;86.03;97264.69;4169595;28;20056;-72
2022/02/16 07:51:10;;;;;;;0.82;0.82;;;;;;;4.60;87.19;97271.00;4169887;28;20112;-72
2022/02/16 07:53:11;;;;;;;1.08;0.90;;;;;;;4.57;86.76;97260.81;4169952;28;20044;-72
2022/02/16 07:55:12;;;;;;;0.95;0.80;;;;;;;4.64;87.02;97262.88;4169601;28;20082;-72
2022/02/16 07:57:12;;;;;;;0.70;0.70;;;;;;;4.64;87.54;97263.66;4169215;28;20053;-72
2022/02/16 07:59:13;;;;;;;1.38;0.73;;;;;;;4.74;86.78;97252.06;4169961;28;20304;-71
2022/02/16 08:01:13;;;;;;;0.80;0.80;;;;;;;4.76;86.71;97251.69;4169872;28;20041;-71
2022/02/16 08:03:13;;;;;;;0.80;0.80;;;;;;;4.76;86.71;97260.69;4169345;28;20426;-71
2022/02/16 08:05:14;;;;;;;0.80;0.80;;;;;;;4.82;86.75;97241.19;4169332;28;20037;-72
2022/02/16 08:07:14;;;;;;;0.93;0.88;;;;;;;4.89;84.91;97233.06;4169208;28;20414;-72
2022/02/16 08:09:15;;;;;;;0.85;0.85;;;;;;;4.97;86.82;97230.06;4169478;28;20082;-72
2022/02/16 08:11:16;;;;;;;0.70;0.70;;;;;;;4.96;86.40;97217.50;4169224;28;20045;-72
2022/02/16 08:13:17;;;;;;;2.22;0.80;;;;;;;4.99;86.02;97216.78;4169928;28;20051;-72
2022/02/16 08:15:17;;;;;;;1.13;0.98;;;;;;;5.04;85.78;97205.47;4169602;28;20064;-72
2022/02/16 08:17:18;;;;;;;0.80;0.80;;;;;;;5.05;86.38;97193.34;4168388;28;20501;-72
2022/02/16 08:19:18;;;;;;;1.02;0.80;;;;;;;5.11;85.87;97199.28;4169585;28;20052;-72
2022/02/16 08:21:18;;;;;;;1.23;0.80;;;;;;;5.13;85.90;97190.69;4169605;28;20045;-72
2022/02/16 08:23:19;;;;;;;1.38;1.00;;;;;;;5.11;85.35;97206.72;4169603;28;20115;-72
2022/02/16 08:25:19;;;;;;;1.50;0.90;;;;;;;5.11;85.78;97206.72;4169477;28;20053;-71
2022/02/16 08:27:19;;;;;;;0.80;0.80;;;;;;;5.09;85.64;97215.31;4171272;28;20045;-71
2022/02/16 08:29:22;;;;;;;0.90;0.80;;;;;;;5.12;86.08;97211.81;4173007;28;20098;-72
2022/02/16 08:31:22;;;;;;;;;;;;;;;5.16;85.45;97209.94;4172886;28;20080;-71
2022/02/16 08:33:23;;;;;;;1.60;0.80;;;;;;;5.13;85.81;97196.97;4173113;28;20155;-71
2022/02/16 08:35:24;;;;;;;0.80;0.80;;;;;;;5.14;85.89;97200.50;4173314;28;20102;-72
2022/02/16 08:37:24;;;;;;;1.20;0.80;;;;;;;5.18;86.02;97202.13;4171880;28;20048;-72
2022/02/16 08:39:26;;;;;;;0.88;0.80;;;;;;;5.16;86.02;97188.00;4172702;28;20456;-72
2022/02/16 08:41:27;;;;;;;1.00;0.90;;;;;;;5.22;84.62;97182.97;4173009;28;20037;-72
2022/02/16 08:43:28;;;;;;;0.73;0.73;;;;;;;5.25;85.59;97196.72;4172742;28;20049;-72
2022/02/16 08:45:28;;;;;;;0.80;0.80;;;;;;;5.25;85.48;97176.72;4172637;28;20112;-72
2022/02/16 08:47:28;;;;;;;3.08;0.93;;;;;;;5.21;84.19;97175.88;4171644;28;20048;-72
2022/02/16 08:49:29;;;;;;;0.77;0.77;;;;;;;5.21;86.07;97181.38;4172962;28;20182;-72
2022/02/16 08:51:29;;;;;;;1.00;0.75;;;;;;;5.21;85.47;97164.91;4172711;28;20048;-72
2022/02/16 08:53:30;;;;;;;1.08;0.98;;;;;;;5.19;86.19;97164.50;4172614;28;20080;-72
2022/02/16 08:55:30;;;;;;;0.90;0.90;;;;;;;5.15;85.33;97139.81;4173079;28;20223;-72
2022/02/16 08:57:31;;;;;;;1.48;1.02;;;;;;;5.12;85.77;97132.31;4171508;28;20075;-72
2022/02/16 08:59:31;;;;;;;1.30;1.00;;;;;;;5.19;85.80;97145.31;4173062;28;20783;-72
2022/02/16 09:01:32;;;;;;;0.80;0.80;;;;;;;5.15;86.81;97147.25;4172694;28;20075;-72
2022/02/16 09:03:32;;;;;;;1.52;1.00;;;;;;;5.10;88.80;97142.09;4172461;28;20057;-72
2022/02/16 09:05:33;;;;;;;0.90;0.75;;;;;;;5.11;87.80;97149.16;4172139;28;20057;-72
2022/02/16 09:07:33;;;;;;;1.83;0.93;;;;;;;5.15;87.06;97139.81;4171839;28;20037;-72
2022/02/16 09:09:37;;;;;;;1.00;0.95;;;;;;;5.23;87.89;97154.38;4172145;28;20444;-73
2022/02/16 09:11:37;;;;;;;1.10;0.98;;;;;;;5.33;86.66;97129.03;4172184;28;20572;-72
2022/02/16 09:13:37;;;;;;;1.10;0.95;;;;;;;5.32;86.43;97146.66;4172256;28;20507;-72
2022/02/16 09:15:38;;;;;;;2.65;1.17;;;;;;;5.34;85.92;97152.53;4172287;28;20329;-72
2022/02/16 09:17:38;;;;;;;1.10;1.00;;;;;;;5.38;85.92;97142.41;4171236;28;20477;-72
2022/02/16 09:19:39;;;;;;;1.85;0.90;;;;;;;5.39;86.04;97156.91;4172059;28;20130;-72
2022/02/16 09:21:39;;;;;;;2.42;0.90;;;;;;;5.45;86.69;97142.47;4172377;28;20148;-72
2022/02/16 09:23:40;;;;;;;0.80;0.80;;;;;;;5.45;87.04;97147.16;4172198;28;20049;-72
2022/02/16 09:25:41;;;;;;;0.80;0.80;;;;;;;5.43;86.60;97133.81;4172222;28;20465;-72
2022/02/16 09:27:41;;;;;;;0.82;0.82;;;;;;;5.33;86.09;97132.56;4171154;28;20045;-72
2022/02/16 09:29:42;;;;;;;1.08;0.85;;;;;;;5.25;87.46;97117.19;4172177;28;20528;-72
2022/02/16 09:31:43;;;;;;;0.90;0.90;;;;;;;5.21;88.51;97105.41;4171994;28;20056;-72
2022/02/16 09:33:43;;;;;;;0.80;0.80;;;;;;;5.20;87.87;97103.03;4171807;28;20504;-72